Hurricane Symbol View the latest observations near Atlantic Potential Tropical Cyclone One.

Station 51004 (LLNR 28005) - SOUTHEAST HAWAII - 205 NM Southeast of Hilo, HI Image indicating link to RSS feed of recent meteorological observations for station 51004


Conditions at 51004 as of
(12:40 am HAST)
1040 GMT on 06/19/2024:
     

Click on the graph icon in the table below to see a time series plot of the last five days of that observation.

5-day plot - Wind Direction Wind Direction (WDIR):ENE ( 70 deg true )
5-day plot - Wind Speed Wind Speed (WSPD): 17.5 kts
5-day plot - Wind Gust Wind Gust (GST): 21.4 kts
5-day plot - Wave Height Wave Height (WVHT): 5.9 ft
5-day plot - Average Wave Period Average Period (APD): 5.6 sec
5-day plot - Mean Wave Direction Mean Wave Direction (MWD):ENE ( 73 deg true )
5-day plot - Air Temperature Air Temperature (ATMP): 77.0 °F
5-day plot - Water Temperature Water Temperature (WTMP): 78.4 °F
5-day plot - Dew Point Dew Point (DEWP): 70.0 °F
5-day plot - Wind Speed at 10 Meters Wind Speed at 10 meters (WSPD10M): 19.4 kts
5-day plot - Wind Speed at 20 Meters Wind Speed at 20 meters (WSPD20M): 19.4 kts
5-day plot -  Wind Speed, Wind Gust and Atmospheric Pressure Combined plot of Wind Speed, Gust, and Air Pressure
Supplemental Measurements
Highest 1-minute Wind Speed
Time (HAST)5-day plot - 1-Minute Wind Speed WSPD 5-day plot - 1-Minute Wind Direction WDIR
12:31 am 19.4 kts-
Previous observations
TIME
(HAST)
5-day plot - Wind Direction
WDIR
 
5-day plot - Wind Speed
WSPD
kts
5-day plot - Wind Gust
GST
kts
5-day plot - Wave Height
WVHT
ft
5-day plot - Dominant Wave Period
DPD
sec
5-day plot - Average Wave Period
APD
sec
5-day plot - Mean Wave Direction
MWD
 
5-day plot - Atmospheric Pressure
PRES
in
5-day plot - Pressure Tendency
PTDY
in
5-day plot - Air Temperature
ATMP
°F
5-day plot - Water Temperature
WTMP
°F
5-day plot - Dew Point
DEWP
°F
5-day plot - Salinity
SAL
psu
5-day plot - Visibility
VIS
nmi
5-day plot - Tide (above MLLW)
TIDE
ft
2024-06-19 12:30 amENE 17.5 23.3------ 77.2 78.4 70.0---
2024-06-19 12:20 amENE 15.5 19.4 5.9 85.5ENE-- 77.2 78.4 69.8---
2024-06-19 12:10 amENE 15.5 19.4 5.9-5.5ENE-- 77.2 78.4 69.6---
2024-06-19 12:00 amENE 15.5 17.5------ 77.4 78.4 69.6---
2024-06-18 11:50 pmENE 15.5 17.5 6.6 75.8ENE-- 77.4 78.4 69.6---
2024-06-18 11:40 pmENE 15.5 19.4 6.6-5.8ENE-- 77.4 78.4 70.0---
2024-06-18 11:30 pmENE 15.5 19.4------ 77.7 78.4 69.1---
2024-06-18 11:20 pmENE 15.5 19.4 6.6 85.7ENE-- 77.5 78.4 69.4---
2024-06-18 11:10 pm E 15.5 19.4 6.6-5.7ENE-- 77.5 78.4 68.5---
2024-06-18 11:00 pm E 17.5 19.4------ 77.5 78.4 69.6---
2024-06-18 10:50 pm E 15.5 21.4 6.2 75.5 NE-- 77.4 78.4 69.3---
2024-06-18 10:40 pmENE 15.5 19.4 6.2-5.5 NE-- 77.4 78.4 69.4---
2024-06-18 10:30 pmENE 15.5 21.4------ 77.4 78.4 69.6---
2024-06-18 10:20 pmENE 17.5 21.4 6.9 85.7ENE-- 77.4 78.4 69.3---
2024-06-18 10:10 pmENE 17.5 21.4 6.9-5.7ENE-- 77.4 78.4 69.4---
2024-06-18 10:00 pmENE 17.5 21.4------ 77.4 78.4 69.6---
2024-06-18 09:50 pmENE 17.5 21.4 6.6 75.5 E-- 77.5 78.4 69.8---
2024-06-18 09:40 pmENE 17.5 21.4------ 77.5 78.4 70.0---
2024-06-18 09:30 pmENE 17.5 21.4------ 77.5 78.4 69.6---
2024-06-18 09:20 pmENE 17.5 21.4 6.6 65.6 E-- 77.7 78.4 69.8---
2024-06-18 09:10 pmENE 17.5 19.4 6.6-5.6 E-- 77.7 78.4 70.0---
2024-06-18 09:00 pmENE 17.5 21.4------ 77.7 78.4 69.6---
2024-06-18 08:50 pmENE 17.5 21.4 6.2 85.6ENE-- 77.9 78.4 69.8---
2024-06-18 08:40 pmENE 17.5 21.4------ 77.9 78.4 69.4---
2024-06-18 08:30 pmENE 17.5 21.4------ 77.7 78.4 69.3---
2024-06-18 08:20 pmENE 17.5 21.4 6.6 85.5ENE-- 77.7 78.4 69.1---
2024-06-18 08:10 pmENE 17.5 21.4 6.6-5.5ENE-- 77.4 78.4 70.0---
2024-06-18 08:00 pmENE 17.5 19.4------ 77.7 78.4 69.8---
2024-06-18 07:50 pmENE 17.5 21.4 6.6 75.7 E-- 77.5 78.4 70.0---
2024-06-18 07:40 pm E 15.5 19.4------ 77.5 78.4 70.2---
2024-06-18 07:30 pmENE 15.5 19.4------ 77.5 78.4 69.8---
2024-06-18 07:20 pmENE 15.5 17.5 6.6 85.6ENE-- 77.5 78.4 69.1---
2024-06-18 07:10 pmENE 15.5 19.4 6.6-5.6ENE-- 77.7 78.4 68.5---
2024-06-18 07:00 pmENE 15.5 19.4------ 77.7 78.4 68.2---
2024-06-18 06:50 pmENE 17.5 21.4 6.6 85.7ENE-- 77.5 78.4 69.4---
2024-06-18 06:40 pmENE 19.4 23.3------ 77.0 78.4 69.4---
2024-06-18 06:30 pmENE 17.5 23.3------ 77.7 78.4 69.8---
2024-06-18 06:20 pmENE 15.5 19.4 6.9 85.8ENE-- 77.7 78.4 69.6---
2024-06-18 06:10 pmENE 15.5 19.4 6.9-5.8ENE-- 77.7 78.4 69.6---
2024-06-18 06:00 pmENE 15.5 19.4------ 77.7 78.4 69.3---
2024-06-18 05:50 pmENE 15.5 19.4 6.6 85.7ENE-- 77.7 78.4 69.4---
2024-06-18 05:40 pmENE 15.5 19.4------ 77.5 78.4 69.4---
2024-06-18 05:30 pmENE 15.5 19.4------ 77.5 78.4 69.6---
2024-06-18 05:20 pmENE 15.5 19.4 6.6 85.7ENE-- 77.7 78.4 69.6---
2024-06-18 05:10 pmENE 15.5 19.4 6.6-5.7ENE-- 77.7 78.4 69.4---
2024-06-18 05:00 pmENE 15.5 19.4------ 77.9 78.4 69.1---
2024-06-18 04:50 pmENE 15.5 19.4 7.2 85.8ENE-- 77.9 78.4 68.9---
2024-06-18 04:40 pmENE 17.5 19.4------ 77.9 78.4 68.2---
2024-06-18 04:30 pmENE 15.5 19.4------ 77.7 78.4 68.7---
2024-06-18 04:20 pmENE 15.5 19.4 6.9 75.8ENE-- 77.5 78.4 68.9---
2024-06-18 04:10 pmENE 15.5 19.4 6.9-5.8ENE-- 77.7 78.4 68.7---
2024-06-18 04:00 pmENE 15.5 19.4------ 77.7 78.4 68.5---
2024-06-18 03:50 pmENE 15.5 21.4 7.2 75.8 E-- 77.7 78.4 68.5---
2024-06-18 03:40 pmENE 15.5 21.4------ 77.5 78.4 68.5---
2024-06-18 03:30 pm E 15.5 21.4------ 77.7 78.4 68.9---
2024-06-18 03:20 pmENE 15.5 21.4 6.9 85.8ENE-- 77.4 78.4 68.9---
2024-06-18 03:10 pmENE 17.5 19.4 6.9-5.8ENE-- 77.4 78.4 69.1---
2024-06-18 03:00 pmENE 17.5 21.4------ 77.2 78.4 69.4---
2024-06-18 02:50 pmENE 17.5 21.4 6.9 85.7 E-- 77.0 78.4 69.3---
2024-06-18 02:40 pmENE 17.5 21.4------ 77.2 78.4 69.1---
2024-06-18 02:30 pmENE 17.5 21.4------ 77.0 78.4 69.1---
2024-06-18 02:20 pmENE 17.5 21.4 7.2 85.8ENE-- 77.2 78.4 69.4---
2024-06-18 02:10 pmENE 17.5 21.4 7.2-5.8ENE-- 77.2 78.4 69.1---
2024-06-18 02:00 pmENE 15.5 19.4------ 77.0 78.4 69.4---
2024-06-18 01:50 pmENE 15.5 19.4 6.9 85.7ENE-- 77.0 78.4 68.9---
2024-06-18 01:40 pmENE 17.5 21.4------ 77.2 78.4 68.4---
2024-06-18 01:10 pmENE 15.5 21.4 7.2-5.8 E-- 77.0 78.4 69.4---
2024-06-18 01:00 pmENE 17.5 21.4------ 76.6 78.4 69.6---
2024-06-18 12:50 pmENE 13.6 17.5 6.9 85.8ENE-- 76.3 78.4 70.2---
2024-06-18 12:40 pmENE 15.5 21.4 6.9-5.8ENE-- 77.0 78.4 69.1---
2024-06-18 12:30 pmENE 17.5 21.4------ 77.4 78.4 68.7---
2024-06-18 12:20 pmENE 17.5 21.4 7.5 76.0ENE-- 77.5 78.4 68.4---
2024-06-18 12:10 pmENE 17.5 21.4 7.5-6.0ENE-- 77.5 78.4 68.2---
2024-06-18 12:00 pmENE 17.5 21.4------ 77.4 78.4 68.4---
2024-06-18 11:50 amENE 19.4 23.3 6.9 85.7 E-- 77.2 78.4 69.3---
2024-06-18 11:40 amENE 19.4 23.3------ 77.2 78.4 69.4---
2024-06-18 11:30 amENE 19.4 23.3------ 77.5 78.4 68.9---
2024-06-18 11:20 amENE 17.5 23.3 6.9 85.7ENE-- 77.5 78.4 69.8---
2024-06-18 11:10 amENE 15.5 21.4 6.9-5.7ENE-- 77.5 78.4 69.4---
2024-06-18 11:00 amENE 17.5 23.3------ 77.5 78.4 68.9---
2024-06-18 10:50 amENE 17.5 23.3 6.9 85.7 E-- 77.4 78.4 68.9---
2024-06-18 10:40 amENE 17.5 21.4 6.9-5.7 E-- 77.2 78.4 68.9---
2024-06-18 10:30 amENE 17.5 21.4------ 77.0 78.4 69.4---
2024-06-18 10:20 amENE 17.5 21.4 6.9 85.8ENE-- 77.2 78.4 69.1---
2024-06-18 10:10 amENE 17.5 23.3 6.9-5.8ENE-- 77.0 78.4 68.5---
2024-06-18 10:00 amENE 19.4 23.3------ 76.5 78.4 68.4---
2024-06-18 09:50 amENE 19.4 25.3 7.5 75.9ENE-- 76.6 78.4 68.7---
2024-06-18 09:40 amENE 17.5 21.4 7.5-5.9ENE-- 76.1 78.4 68.4---
2024-06-18 09:30 amENE 19.4 25.3------ 75.0 78.4 69.1---
2024-06-18 09:20 amENE 21.4 29.1 7.2 75.7ENE-- 75.4 78.4 70.2---
2024-06-18 09:10 amENE 17.5 21.4 7.2-5.7ENE-- 76.8 78.4 69.6---
2024-06-18 09:00 amENE 17.5 21.4------ 76.6 78.4 69.8---
2024-06-18 08:50 amENE 17.5 21.4 6.9 85.7 E-- 76.6 78.4 70.0---
2024-06-18 08:40 amENE 19.4 23.3------ 77.0 78.4 70.2---
2024-06-18 08:30 amENE 17.5 21.4------ 76.8 78.4 70.2---
2024-06-18 08:20 amENE 17.5 23.3 6.6 75.6 E-- 77.0 78.4 70.5---
2024-06-18 08:10 amENE 17.5 21.4 6.6-5.6 E-- 77.4 78.4 69.3---
2024-06-18 08:00 amENE 17.5 21.4------ 77.5 78.4 68.4---
2024-06-18 07:50 am E 17.5 21.4 7.2 86.0ENE-- 77.7 78.4 67.5---
2024-06-18 07:40 amENE 15.5 21.4 7.2-6.0ENE-- 77.4 78.4 67.8---
2024-06-18 07:30 amENE 17.5 21.4------ 77.0 78.4 68.7---
2024-06-18 07:20 amENE 17.5 23.3 6.9 85.9ENE-- 76.8 78.4 69.3---
2024-06-18 07:10 amENE 17.5 21.4------ 76.8 78.4 69.6---
2024-06-18 07:00 amENE 17.5 19.4------ 76.8 78.4 69.6---
2024-06-18 06:50 amENE 17.5 21.4 6.9 76.0ENE-- 77.0 78.4 69.1---
2024-06-18 06:40 amENE 15.5 21.4 6.9-6.0ENE-- 77.4 78.4 69.3---
2024-06-18 06:30 amENE 15.5 19.4------ 77.7 78.4 67.6---
2024-06-18 06:20 amENE 15.5 17.5 7.2 86.2 E-- 77.7 78.4 67.5---
2024-06-18 06:10 amENE 15.5 19.4 7.2-6.2 E-- 77.5 78.4 66.7---
2024-06-18 06:00 amENE 15.5 19.4------ 77.5 78.4 67.3---
2024-06-18 05:50 amENE 17.5 19.4 6.9 75.8ENE-- 77.4 78.4 67.6---
2024-06-18 05:40 amENE 15.5 19.4------ 77.4 78.4 67.8---
2024-06-18 05:30 amENE 15.5 19.4------ 77.5 78.4 67.8---
2024-06-18 05:20 am E 15.5 21.4 7.2 76.2ENE-- 77.4 78.4 67.3---
2024-06-18 05:10 amENE 15.5 19.4 7.2-6.2ENE-- 77.5 78.4 67.6---
2024-06-18 05:00 amENE 17.5 19.4------ 77.2 78.4 67.5---
2024-06-18 04:50 amENE 15.5 19.4 6.9 85.9ENE-- 77.4 78.4 67.6---
2024-06-18 04:40 amENE 13.6 19.4------ 77.7 78.4 66.4---
2024-06-18 04:30 am E 15.5 19.4------ 77.7 78.4 64.9---
2024-06-18 04:20 am E 15.5 19.4 7.2 85.9ENE-- 77.4 78.4 66.6---
2024-06-18 04:10 amENE 17.5 23.3 7.2-5.9ENE-- 77.2 78.4 68.5---
2024-06-18 04:00 amENE 17.5 23.3------ 77.2 78.4 68.5---
2024-06-18 03:50 amENE 17.5 21.4 7.5 86.1ENE-- 77.4 78.4 68.9---
2024-06-18 03:40 amENE 17.5 21.4------ 77.2 78.4 68.0---
2024-06-18 03:30 amENE 17.5 21.4------ 77.2 78.6 68.5---
2024-06-18 03:20 amENE 17.5 21.4 7.5 86.0ENE-- 77.2 78.6 68.7---
2024-06-18 03:10 amENE 17.5 21.4 7.5-6.0ENE-- 77.2 78.6 68.7---
2024-06-18 03:00 amENE 17.5 21.4------ 77.0 78.6 69.3---
2024-06-18 02:50 amENE 17.5 23.3 6.6 85.9 E-- 77.5 78.6 68.7---
2024-06-18 02:40 amENE 15.5 19.4------ 77.5 78.6 68.5---
2024-06-18 02:30 amENE 15.5 19.4------ 77.4 78.6 68.7---
2024-06-18 02:20 amENE 15.5 21.4 6.9 86.1 E-- 77.2 78.6 69.6---
2024-06-18 02:10 am E 15.5 21.4 6.9-6.1 E-- 76.8 78.6 70.2---
2024-06-18 02:00 amENE 15.5 19.4------ 77.2 78.6 69.6---
2024-06-18 01:50 amENE 15.5 19.4 7.5 86.1 E-- 77.0 78.6 69.1---
2024-06-18 01:40 am E 15.5 19.4------ 76.5 78.6 69.4---
2024-06-18 01:30 amENE 15.5 19.4------ 77.2 78.6 69.6---
2024-06-18 01:20 amENE 13.6 17.5 7.2 86.0ENE-- 76.6 78.6 69.6---
2024-06-18 01:10 am E 15.5 21.4 7.2-6.0ENE-- 76.3 78.6 69.8---
2024-06-18 01:00 amENE 17.5 21.4------ 77.0 78.6 70.0---
2024-06-18 12:50 amENE 15.5 19.4 7.5 86.1ENE-- 77.2 78.6 69.6---

Detailed Wave Summary
for 51004 as of (12:40 am HAST)
1040 GMT on 06/19/2024:

These wave data are displayed in rounded times.

     

Click on the graph icon in the table below to see a time series plot of the last five days of that observation.

5-day plot - Significant Wave Height Significant Wave Height (WVHT): 5.9 ft
5-day plot - Swell Height Swell Height (SwH): 2.0 ft
5-day plot - Swell Period Swell Period (SwP): 11.4 sec
5-day plot - Swell Direction Swell Direction (SwD): SE
5-day plot - Wind Wave Height Wind Wave Height (WWH): 5.6 ft
5-day plot - Wind Wave Period Wind Wave Period (WWP): 7.1 sec
5-day plot - Wind Wave Direction Wind Wave Direction (WWD):ENE
5-day plot - Wave Steepness Wave Steepness (STEEPNESS): STEEP
5-day plot - Average Wave Period Average Wave Period (APD): 5.6 sec
Previous observations
TIME
(HAST)
5-day plot - Wave Height
WVHT
ft
5-day plot - Swell Height
SwH
ft
5-day plot - Swell Period
SwP
sec
5-day plot - Swell Direction
SwD
 
5-day plot - Wind Wave Height
WWH
ft
5-day plot - Wind Wave Period
WWP
sec
5-day plot - Wind Wave Direction
WWD
 
5-day plot - Wave Steepness
STEEPNESS
 
5-day plot - Average Wave Period
APD
sec
2024-06-19 12:10 am 5.9 2.3 11.4NNE 5.2 7.7 ENE STEEP 5.5
2024-06-18 11:40 pm 6.6 3.6 11.4SSW 5.6 7.1 ENE STEEP 5.8
2024-06-18 11:10 pm 6.6 3.0 11.4 E 5.9 7.7 ENE STEEP 5.7
2024-06-18 10:40 pm 6.2 2.6 11.4 NW 5.9 7.1 NE STEEP 5.5
2024-06-18 10:10 pm 6.9 2.3 11.4 NE 6.6 7.7 ENE STEEP 5.7
2024-06-18 09:40 pm 6.6 2.0 11.4SSW 6.2 7.1 E STEEP 5.5
2024-06-18 09:10 pm 6.6 3.0 11.4NNE 5.9 6.2 EVERY_STEEP 5.6
2024-06-18 08:40 pm 6.2 3.0 11.4ENE 5.2 7.7 ENE STEEP 5.6
2024-06-18 08:10 pm 6.6 2.6 12.1NNW 5.9 7.7 ENE STEEP 5.5
2024-06-18 07:40 pm 6.6 3.3 11.4 SW 5.9 6.7 E STEEP 5.7
2024-06-18 07:10 pm 6.6 3.0 11.4WSW 5.6 7.7 ENE STEEP 5.6
2024-06-18 06:40 pm 6.6 2.3 11.4NNW 6.2 7.7 ENE STEEP 5.7
2024-06-18 06:10 pm 6.9 3.9 7.7ENE 5.6 6.7 ENE STEEP 5.8
2024-06-18 05:40 pm 6.6 3.9 7.7ENE 5.2 6.7 ENE STEEP 5.7
2024-06-18 05:10 pm 6.6 3.6 7.7ENE 5.2 6.7 ENE STEEP 5.7
2024-06-18 04:40 pm 7.2 3.0 11.4 SE 6.6 7.7 ENE STEEP 5.8
2024-06-18 04:10 pm 6.9 3.0 11.4 W 6.6 7.1 ENE STEEP 5.8
2024-06-18 03:40 pm 7.2 3.3 12.1 W 6.6 7.1 E STEEP 5.8
2024-06-18 03:10 pm 6.9 3.3 12.1 W 6.2 7.7 ENE STEEP 5.8
2024-06-18 02:40 pm 6.9 2.3 12.9WSW 6.6 8.3 E AVERAGE 5.7
2024-06-18 02:10 pm 7.2 2.0 12.1 NW 6.9 7.7 ENE STEEP 5.8
2024-06-18 01:40 pm 6.9 2.3 11.4ENE 6.6 7.7 ENE STEEP 5.7
2024-06-18 01:10 pm 7.2 3.6 12.1 E 6.2 7.7 E STEEP 5.8
2024-06-18 12:40 pm 6.9 3.0 11.4WNW 6.2 7.7 ENE STEEP 5.8
2024-06-18 12:10 pm 7.5 3.0 12.1ENE 7.2 7.1 ENE STEEP 6.0
2024-06-18 11:40 am 6.9 2.3 11.4 SE 6.6 7.7 E STEEP 5.7
2024-06-18 11:10 am 6.9 3.6 8.3ENE 5.9 6.2 E AVERAGE 5.7
2024-06-18 10:40 am 6.9 2.6 11.4ESE 6.6 7.7 E STEEP 5.7
2024-06-18 10:10 am 6.9 2.6 12.1 NE 6.2 7.7 ENE STEEP 5.8
2024-06-18 09:40 am 7.5 3.0 12.1ESE 6.9 7.1 ENE STEEP 5.9
2024-06-18 09:10 am 7.2 2.3 12.1 N 6.9 7.1 ENE STEEP 5.7
2024-06-18 08:40 am 6.9 2.6 12.1 SE 6.2 7.7 E STEEP 5.7
2024-06-18 08:10 am 6.6 3.0 12.1 E 5.9 6.7 E STEEP 5.6
2024-06-18 07:40 am 7.2 3.6 12.1NNW 6.6 7.7 ENE STEEP 6.0
2024-06-18 07:10 am 6.9 3.3 9.1 E 6.2 7.7 ENE STEEP 5.9
2024-06-18 06:40 am 6.9 3.9 9.1ENE 5.9 7.1 ENE STEEP 6.0
2024-06-18 06:10 am 7.2 4.3 12.1 NE 6.2 7.7 E STEEP 6.2
2024-06-18 05:40 am 6.9 4.3 10.8 E 5.6 7.1 ENE STEEP 5.8
2024-06-18 05:10 am 7.2 4.3 8.3 E 5.9 7.1 ENE STEEP 6.2
2024-06-18 04:40 am 6.9 4.6 7.7ENE 5.2 6.7 E STEEP 5.9
2024-06-18 04:10 am 7.2 2.6 12.9 N 6.9 7.7 ENE STEEP 5.9
2024-06-18 03:40 am 7.5 3.0 12.1 NW 6.9 7.7 ENE STEEP 6.1
2024-06-18 03:10 am 7.5 3.0 12.9NNE 6.9 7.7 ENE STEEP 6.0
2024-06-18 02:40 am 6.6 3.6 12.9NNE 5.6 7.7 E STEEP 5.9
2024-06-18 02:10 am 6.9 4.9 8.3 E 4.9 6.2 ENE AVERAGE 6.1
2024-06-18 01:40 am 7.5 5.2 8.3 E 5.2 6.7 E STEEP 6.1
2024-06-18 01:10 am 7.2 4.3 12.9 NW 5.9 7.7 ENE STEEP 6.0

Plot of wave energy versus frequency (and period)